createdAt,value
2023-10-29T00:00:11.876Z,4.65
2023-10-29T00:02:40.038Z,4.00
2023-10-29T00:05:07.529Z,3.88
2023-10-29T00:07:35.167Z,3.88
2023-10-29T00:10:02.538Z,3.97
2023-10-29T00:12:31.651Z,4.43
2023-10-29T00:14:59.312Z,4.97
2023-10-29T00:17:26.829Z,4.65
2023-10-29T00:19:56.486Z,4.32
2023-10-29T00:22:24.053Z,3.45
2023-10-29T00:24:51.405Z,3.70
2023-10-29T00:27:18.853Z,3.63
2023-10-29T00:29:48.222Z,3.75
2023-10-29T00:32:17.123Z,2.58
2023-10-29T00:34:44.796Z,2.97
2023-10-29T00:37:12.094Z,3.45
2023-10-29T00:39:39.915Z,3.40
2023-10-29T00:42:07.676Z,3.40
2023-10-29T00:44:35.330Z,3.38
2023-10-29T00:47:02.869Z,3.47
2023-10-29T00:49:30.264Z,3.65
2023-10-29T00:51:57.791Z,3.22
2023-10-29T00:54:25.540Z,3.38
2023-10-29T00:56:55.279Z,3.20
2023-10-29T00:59:23.371Z,3.40
2023-10-29T01:01:51.033Z,3.67
2023-10-29T01:04:18.412Z,2.88
2023-10-29T01:06:47.948Z,2.50
2023-10-29T01:09:16.492Z,3.30
2023-10-29T01:11:43.833Z,2.72
2023-10-29T01:14:11.270Z,3.30
2023-10-29T01:16:39.917Z,2.72
2023-10-29T01:19:07.491Z,2.90
2023-10-29T01:21:35.219Z,2.33
2023-10-29T01:24:03.644Z,2.83
2023-10-29T01:26:30.857Z,2.15
2023-10-29T01:28:58.085Z,2.75
2023-10-29T01:31:25.489Z,1.98
2023-10-29T01:33:53.918Z,2.58
2023-10-29T01:36:21.114Z,2.50
2023-10-29T01:38:48.510Z,2.05
2023-10-29T01:41:17.211Z,2.03
2023-10-29T01:43:44.747Z,2.08
2023-10-29T01:46:11.991Z,1.80
2023-10-29T01:48:39.237Z,1.92
2023-10-29T01:51:07.638Z,1.70
2023-10-29T01:53:34.883Z,1.90
2023-10-29T01:56:07.431Z,2.00
2023-10-29T01:58:35.444Z,2.03
2023-10-29T02:01:02.964Z,1.95
2023-10-29T02:03:30.470Z,1.85
2023-10-29T02:05:57.875Z,2.13
2023-10-29T02:08:25.171Z,1.83
2023-10-29T02:10:52.437Z,1.73
2023-10-29T02:13:20.015Z,1.90
2023-10-29T02:15:47.573Z,1.70
2023-10-29T02:18:15.508Z,1.75
2023-10-29T02:21:02.997Z,1.20
2023-10-29T02:23:30.086Z,1.38
2023-10-29T02:25:57.410Z,1.75
2023-10-29T02:28:24.847Z,1.90
2023-10-29T02:30:52.288Z,1.95
2023-10-29T02:33:19.680Z,1.92
2023-10-29T02:35:47.672Z,1.80
2023-10-29T02:38:16.086Z,1.92
2023-10-29T02:40:44.311Z,1.63
2023-10-29T02:43:12.104Z,1.88
2023-10-29T02:45:41.085Z,1.55
2023-10-29T02:48:08.394Z,1.50
2023-10-29T02:50:39.527Z,1.75
2023-10-29T02:53:06.967Z,1.77
2023-10-29T02:55:34.400Z,1.73
2023-10-29T02:58:03.088Z,1.48
2023-10-29T03:00:30.422Z,1.50
2023-10-29T03:02:57.910Z,1.75
2023-10-29T03:05:25.188Z,1.55
2023-10-29T03:07:52.748Z,1.58
2023-10-29T03:10:20.406Z,1.58
2023-10-29T03:12:47.606Z,2.00
2023-10-29T03:15:15.311Z,1.40
2023-10-29T03:17:42.761Z,1.90
2023-10-29T03:20:11.119Z,1.60
2023-10-29T03:22:38.936Z,1.60
2023-10-29T03:25:06.445Z,1.65
2023-10-29T03:27:34.260Z,1.83
2023-10-29T03:30:02.525Z,1.70
2023-10-29T03:32:32.344Z,2.00
2023-10-29T03:35:00.900Z,1.83
2023-10-29T03:37:28.274Z,1.65
2023-10-29T03:39:55.620Z,2.15
2023-10-29T03:42:23.028Z,2.38
2023-10-29T03:44:50.548Z,2.00
2023-10-29T03:47:18.067Z,2.28
2023-10-29T03:49:45.504Z,2.10
2023-10-29T03:52:13.059Z,2.50
2023-10-29T03:54:40.467Z,2.63
2023-10-29T03:57:08.821Z,2.35
2023-10-29T03:59:36.326Z,2.70
2023-10-29T04:02:05.469Z,2.78
2023-10-29T04:04:36.951Z,2.67
2023-10-29T04:07:04.169Z,2.85
2023-10-29T04:09:32.118Z,3.00
2023-10-29T04:12:00.588Z,3.58
2023-10-29T04:14:28.088Z,3.13
2023-10-29T04:16:55.282Z,3.05
2023-10-29T04:19:22.764Z,3.10
2023-10-29T04:21:50.039Z,3.33
2023-10-29T04:24:17.537Z,3.00
2023-10-29T04:26:44.816Z,3.50
2023-10-29T04:29:12.093Z,3.47
2023-10-29T04:31:39.441Z,3.28
2023-10-29T04:34:06.818Z,3.65
2023-10-29T04:36:34.162Z,3.30
2023-10-29T04:39:01.724Z,3.17
2023-10-29T04:41:29.360Z,4.10
2023-10-29T04:43:56.628Z,3.38
2023-10-29T04:46:24.192Z,4.50
2023-10-29T04:48:51.502Z,3.42
2023-10-29T04:51:18.773Z,3.42
2023-10-29T04:53:46.072Z,4.32
2023-10-29T04:56:13.415Z,3.50
2023-10-29T04:58:40.805Z,4.05
2023-10-29T05:01:08.950Z,3.80
2023-10-29T05:03:36.617Z,3.10
2023-10-29T05:06:05.186Z,3.25
2023-10-29T05:08:32.764Z,4.38
2023-10-29T05:11:00.005Z,3.92
2023-10-29T05:13:27.273Z,3.53
2023-10-29T05:15:54.721Z,3.15
2023-10-29T05:18:22.424Z,3.53
2023-10-29T05:20:49.735Z,3.75
2023-10-29T05:23:17.265Z,3.47
2023-10-29T05:25:45.654Z,4.53
2023-10-29T05:28:12.906Z,4.18
2023-10-29T05:30:40.487Z,4.18
2023-10-29T05:33:07.958Z,4.03
2023-10-29T05:35:35.570Z,3.58
2023-10-29T05:38:02.776Z,4.18
2023-10-29T05:40:30.385Z,4.45
2023-10-29T05:42:59.281Z,4.00
2023-10-29T05:45:28.208Z,4.20
2023-10-29T05:47:58.163Z,4.53
2023-10-29T05:50:25.940Z,4.45
2023-10-29T05:52:53.401Z,4.18
2023-10-29T05:55:23.622Z,4.75
2023-10-29T05:57:50.995Z,4.18
2023-10-29T06:00:18.826Z,4.60
2023-10-29T06:02:46.334Z,4.35
2023-10-29T06:05:14.077Z,4.05
2023-10-29T06:07:45.394Z,4.95
2023-10-29T06:10:14.953Z,4.25
2023-10-29T06:12:43.899Z,4.95
2023-10-29T06:15:12.600Z,4.10
2023-10-29T06:17:40.536Z,4.03
2023-10-29T06:20:10.494Z,4.10
2023-10-29T06:22:37.920Z,4.25
2023-10-29T06:25:05.694Z,4.20
2023-10-29T06:27:33.064Z,4.53
2023-10-29T06:30:01.252Z,4.20
2023-10-29T06:32:34.682Z,4.10
2023-10-29T06:35:02.185Z,3.95
2023-10-29T06:37:31.516Z,4.28
2023-10-29T06:39:58.871Z,4.38
2023-10-29T06:42:26.226Z,5.07
2023-10-29T06:44:53.573Z,5.00
2023-10-29T06:47:21.272Z,5.43
2023-10-29T06:49:48.682Z,4.60
2023-10-29T06:52:16.125Z,5.00
2023-10-29T06:54:43.350Z,5.28
2023-10-29T06:57:10.891Z,4.80
2023-10-29T06:59:38.321Z,4.80
2023-10-29T07:02:06.066Z,4.50
2023-10-29T07:04:33.743Z,4.55
2023-10-29T07:07:01.313Z,4.43
2023-10-29T07:09:29.026Z,3.95
2023-10-29T07:11:57.108Z,4.45
2023-10-29T07:14:24.608Z,3.80
2023-10-29T07:16:51.995Z,4.30
2023-10-29T07:19:19.491Z,4.47
2023-10-29T07:21:47.160Z,4.57
2023-10-29T07:24:14.506Z,4.43
2023-10-29T07:26:42.437Z,4.82
2023-10-29T07:29:09.893Z,4.20
2023-10-29T07:31:37.311Z,5.50
2023-10-29T07:34:04.843Z,6.50
2023-10-29T07:36:32.304Z,5.40
2023-10-29T07:38:59.890Z,6.40
2023-10-29T07:41:27.490Z,5.53
2023-10-29T07:43:54.750Z,5.80
2023-10-29T07:46:22.075Z,5.13
2023-10-29T07:48:49.297Z,5.95
2023-10-29T07:51:16.859Z,5.50
2023-10-29T07:53:44.388Z,5.32
2023-10-29T07:56:14.486Z,5.72
2023-10-29T07:58:41.909Z,6.55
2023-10-29T08:01:16.398Z,5.43
2023-10-29T08:03:45.382Z,5.40
2023-10-29T08:06:14.340Z,5.38
2023-10-29T08:08:42.034Z,5.63
2023-10-29T08:11:19.181Z,5.95
2023-10-29T08:13:47.307Z,5.63
2023-10-29T08:16:15.054Z,4.93
2023-10-29T08:18:42.899Z,4.70
2023-10-29T08:21:10.340Z,5.28
2023-10-29T08:23:37.952Z,5.43
2023-10-29T08:26:05.294Z,6.18
2023-10-29T08:28:32.872Z,6.28
2023-10-29T08:31:00.121Z,5.80
2023-10-29T08:33:28.035Z,6.13
2023-10-29T08:35:55.534Z,6.10
2023-10-29T08:38:23.051Z,6.70
2023-10-29T08:40:50.363Z,6.45
2023-10-29T08:43:18.580Z,6.78
2023-10-29T08:45:46.028Z,6.20
2023-10-29T08:48:15.151Z,6.30
2023-10-29T08:50:42.704Z,5.03
2023-10-29T08:53:12.312Z,6.75
2023-10-29T08:55:39.973Z,5.50
2023-10-29T08:58:10.904Z,6.60
2023-10-29T09:00:46.534Z,6.22
2023-10-29T09:03:17.118Z,5.85
2023-10-29T09:05:45.054Z,5.60
2023-10-29T09:08:12.969Z,5.60
2023-10-29T09:10:44.089Z,6.70
2023-10-29T09:13:11.797Z,5.82
2023-10-29T09:15:42.381Z,6.80
2023-10-29T09:18:12.413Z,6.20
2023-10-29T09:20:40.248Z,5.68
2023-10-29T09:23:07.718Z,5.65
2023-10-29T09:25:35.412Z,4.85
2023-10-29T09:28:06.389Z,6.68
2023-10-29T09:30:40.222Z,6.30
2023-10-29T09:33:09.453Z,6.18
2023-10-29T09:35:37.224Z,6.30
2023-10-29T09:38:07.420Z,6.20
2023-10-29T09:40:35.263Z,7.22
2023-10-29T09:43:09.826Z,5.97
2023-10-29T09:45:49.069Z,6.85
2023-10-29T09:48:17.515Z,6.45
2023-10-29T09:50:49.742Z,6.30
2023-10-29T09:53:17.397Z,6.78
2023-10-29T09:55:44.869Z,6.68
2023-10-29T09:58:12.170Z,6.53
2023-10-29T10:00:42.818Z,6.68
2023-10-29T10:03:10.279Z,5.93
2023-10-29T10:05:40.076Z,6.75
2023-10-29T10:08:07.455Z,6.25
2023-10-29T10:10:39.984Z,6.75
2023-10-29T10:13:08.028Z,5.80
2023-10-29T10:15:36.365Z,6.22
2023-10-29T10:18:08.653Z,5.95
2023-10-29T10:20:36.914Z,6.18
2023-10-29T10:23:21.085Z,5.28
2023-10-29T10:25:48.729Z,5.97
2023-10-29T10:28:18.011Z,6.15
2023-10-29T10:30:45.271Z,6.13
2023-10-29T10:33:14.963Z,6.22
2023-10-29T10:35:48.230Z,5.82
2023-10-29T10:38:16.671Z,5.90
2023-10-29T10:40:45.788Z,6.00
2023-10-29T10:43:19.653Z,6.18
2023-10-29T10:45:51.786Z,4.95
2023-10-29T10:48:19.835Z,5.20
2023-10-29T10:50:48.416Z,5.65
2023-10-29T10:53:18.983Z,6.18
2023-10-29T10:56:02.526Z,5.22
2023-10-29T10:58:32.614Z,5.43
2023-10-29T11:01:00.669Z,5.47
2023-10-29T11:06:22.915Z,4.47
2023-10-29T11:08:51.036Z,6.45
2023-10-29T11:11:19.639Z,6.25
2023-10-29T11:13:47.409Z,4.97
2023-10-29T11:16:26.489Z,4.30
2023-10-29T11:18:55.892Z,5.40
2023-10-29T11:21:35.491Z,4.93
2023-10-29T11:24:20.258Z,5.32
2023-10-29T11:26:48.642Z,5.15
2023-10-29T11:29:42.415Z,5.38
2023-10-29T11:32:26.681Z,5.63
2023-10-29T11:35:15.997Z,5.07
2023-10-29T11:37:44.696Z,5.38
2023-10-29T11:40:27.168Z,5.10
2023-10-29T11:42:55.778Z,4.50
2023-10-29T11:45:29.473Z,5.40
2023-10-29T11:48:11.081Z,5.53
2023-10-29T11:50:46.238Z,4.82
2023-10-29T11:53:26.225Z,4.43
2023-10-29T11:55:53.891Z,4.95
2023-10-29T11:58:23.439Z,4.68
2023-10-29T12:00:53.005Z,4.72
2023-10-29T12:03:22.073Z,4.65
2023-10-29T12:05:59.224Z,4.70
2023-10-29T12:08:27.498Z,5.05
2023-10-29T12:10:56.848Z,5.35
2023-10-29T12:13:24.745Z,4.97
2023-10-29T12:15:58.335Z,4.72
2023-10-29T12:18:26.884Z,4.80
2023-10-29T12:21:09.138Z,4.90
2023-10-29T12:23:38.064Z,4.97
2023-10-29T12:26:08.149Z,4.63
2023-10-29T12:28:37.717Z,4.43
2023-10-29T12:31:07.998Z,5.10
2023-10-29T12:33:37.807Z,4.93
2023-10-29T12:36:15.035Z,4.45
2023-10-29T12:38:42.928Z,4.15
2023-10-29T12:41:15.324Z,4.88
2023-10-29T12:43:44.565Z,5.35
2023-10-29T12:46:21.316Z,4.35
2023-10-29T12:49:05.974Z,3.95
2023-10-29T12:51:44.579Z,3.90
2023-10-29T12:54:26.912Z,4.38
2023-10-29T12:57:03.046Z,4.63
2023-10-29T12:59:33.546Z,4.60
2023-10-29T13:02:07.361Z,4.60
2023-10-29T13:04:36.675Z,4.80
2023-10-29T13:07:13.015Z,4.43
2023-10-29T13:09:42.675Z,4.75
2023-10-29T13:12:12.019Z,4.80
2023-10-29T13:14:40.761Z,5.07
2023-10-29T13:17:09.011Z,4.18
2023-10-29T13:19:36.961Z,4.93
2023-10-29T13:22:04.329Z,4.82
2023-10-29T13:24:31.642Z,4.53
2023-10-29T13:26:59.138Z,4.85
2023-10-29T13:29:26.820Z,5.05
2023-10-29T13:31:54.354Z,4.90
2023-10-29T13:34:22.248Z,4.53
2023-10-29T13:36:49.602Z,4.40
2023-10-29T13:39:19.539Z,4.88
2023-10-29T13:41:49.664Z,5.22
2023-10-29T13:44:18.632Z,4.88
2023-10-29T13:46:46.379Z,4.28
2023-10-29T13:49:13.788Z,4.28
2023-10-29T13:51:43.122Z,3.97
2023-10-29T13:54:10.743Z,4.80
2023-10-29T13:56:38.098Z,3.70
2023-10-29T13:59:05.912Z,4.53
2023-10-29T14:01:33.713Z,3.83
2023-10-29T14:04:02.017Z,4.38
2023-10-29T14:06:31.329Z,3.95
2023-10-29T14:08:58.951Z,4.00
2023-10-29T14:11:26.584Z,4.40
2023-10-29T14:13:59.416Z,4.10
2023-10-29T14:16:41.377Z,4.55
2023-10-29T14:19:10.201Z,4.45
2023-10-29T14:21:38.105Z,4.25
2023-10-29T14:24:08.838Z,5.03
2023-10-29T14:26:36.821Z,4.40
2023-10-29T14:29:04.326Z,4.63
2023-10-29T14:31:35.156Z,4.72
2023-10-29T14:34:02.473Z,4.00
2023-10-29T14:36:29.883Z,4.45
2023-10-29T14:38:57.404Z,3.90
2023-10-29T14:41:26.404Z,4.43
2023-10-29T14:43:53.826Z,4.47
2023-10-29T14:46:21.219Z,4.05
2023-10-29T14:48:48.579Z,4.35
2023-10-29T14:51:18.836Z,4.72
2023-10-29T14:53:46.394Z,4.03
2023-10-29T14:56:16.782Z,4.43
2023-10-29T14:58:45.000Z,4.45
2023-10-29T15:01:12.783Z,3.92
2023-10-29T15:03:40.494Z,4.78
2023-10-29T15:06:12.227Z,4.38
2023-10-29T15:08:39.691Z,4.40
2023-10-29T15:11:09.489Z,3.45
2023-10-29T15:13:46.779Z,4.07
2023-10-29T15:16:16.584Z,3.88
2023-10-29T15:18:44.283Z,4.80
2023-10-29T15:21:16.532Z,4.30
2023-10-29T15:23:44.244Z,4.00
2023-10-29T15:26:16.298Z,4.10
2023-10-29T15:28:43.977Z,4.30
2023-10-29T15:31:12.442Z,3.63
2023-10-29T15:33:40.583Z,4.22
2023-10-29T15:36:10.101Z,3.75
2023-10-29T15:38:38.457Z,4.00
2023-10-29T15:41:06.816Z,4.15
2023-10-29T15:43:37.446Z,4.10
2023-10-29T15:46:10.294Z,3.72
2023-10-29T15:48:39.057Z,4.15
2023-10-29T15:51:09.811Z,3.85
2023-10-29T15:53:38.315Z,3.50
2023-10-29T15:56:12.925Z,3.72
2023-10-29T15:58:40.322Z,3.25
2023-10-29T16:01:17.440Z,3.85
2023-10-29T16:03:46.767Z,3.70
2023-10-29T16:06:14.426Z,3.15
2023-10-29T16:08:41.951Z,2.95
2023-10-29T16:11:10.573Z,2.63
2023-10-29T16:13:38.159Z,3.55
2023-10-29T16:16:06.315Z,3.20
2023-10-29T16:18:34.102Z,3.85
2023-10-29T16:21:01.539Z,4.22
2023-10-29T16:23:28.955Z,3.53
2023-10-29T16:25:56.634Z,3.33
2023-10-29T16:28:24.166Z,3.63
2023-10-29T16:30:51.541Z,3.58
2023-10-29T16:33:19.198Z,3.53
2023-10-29T16:35:46.638Z,3.40
2023-10-29T16:38:14.103Z,3.30
2023-10-29T16:40:43.950Z,4.20
2023-10-29T16:43:11.573Z,3.30
2023-10-29T16:45:40.000Z,3.35
2023-10-29T16:48:09.142Z,3.13
2023-10-29T16:50:59.868Z,3.20
2023-10-29T16:53:30.791Z,3.17
2023-10-29T16:56:08.279Z,3.40
2023-10-29T16:58:36.903Z,3.45
2023-10-29T17:01:04.859Z,3.08
2023-10-29T17:03:32.700Z,3.22
2023-10-29T17:06:00.283Z,3.10
2023-10-29T17:08:27.761Z,3.50
2023-10-29T17:11:01.758Z,3.22
2023-10-29T17:13:29.542Z,3.22
2023-10-29T17:16:01.179Z,3.30
2023-10-29T17:18:29.261Z,3.28
2023-10-29T17:20:58.532Z,2.83
2023-10-29T17:23:27.134Z,3.17
2023-10-29T17:25:54.789Z,3.30
2023-10-29T17:28:23.173Z,3.58
2023-10-29T17:30:50.563Z,3.13
2023-10-29T17:33:18.198Z,2.95
2023-10-29T17:35:46.595Z,3.17
2023-10-29T17:38:13.947Z,3.30
2023-10-29T17:40:41.477Z,3.05
2023-10-29T17:43:10.313Z,2.95
2023-10-29T17:45:40.517Z,2.60
2023-10-29T17:48:08.190Z,2.75
2023-10-29T17:50:35.828Z,3.20
2023-10-29T17:53:04.014Z,2.85
2023-10-29T17:55:31.653Z,3.40
2023-10-29T17:58:02.108Z,3.40
2023-10-29T18:00:29.787Z,2.92
2023-10-29T18:02:58.355Z,2.92
2023-10-29T18:05:26.151Z,3.05
2023-10-29T18:07:53.477Z,2.78
2023-10-29T18:10:20.900Z,2.97
2023-10-29T18:12:48.340Z,3.40
2023-10-29T18:15:18.217Z,2.97
2023-10-29T18:17:46.036Z,3.08
2023-10-29T18:20:13.774Z,2.75
2023-10-29T18:22:41.294Z,2.22
2023-10-29T18:25:09.224Z,2.90
2023-10-29T18:27:37.402Z,2.80
2023-10-29T18:30:07.571Z,2.97
2023-10-29T18:32:36.913Z,2.88
2023-10-29T18:35:05.688Z,3.38
2023-10-29T18:37:33.307Z,3.45
2023-10-29T18:40:00.869Z,3.83
2023-10-29T18:42:28.955Z,4.30
2023-10-29T18:44:56.260Z,4.40
2023-10-29T18:47:25.156Z,4.15
2023-10-29T18:49:54.380Z,3.95
2023-10-29T18:52:21.939Z,3.83
2023-10-29T18:54:49.972Z,3.53
2023-10-29T18:57:19.236Z,4.45
2023-10-29T18:59:46.934Z,3.80
2023-10-29T19:02:14.415Z,3.13
2023-10-29T19:04:42.329Z,3.50
2023-10-29T19:07:11.702Z,3.42
2023-10-29T19:09:39.096Z,3.15
2023-10-29T19:12:07.423Z,3.28
2023-10-29T19:14:37.460Z,3.10
2023-10-29T19:17:10.078Z,3.30
2023-10-29T19:19:41.960Z,3.53
2023-10-29T19:22:10.768Z,3.60
2023-10-29T19:24:39.870Z,4.13
2023-10-29T19:27:08.242Z,4.18
2023-10-29T19:29:36.450Z,4.00
2023-10-29T19:32:04.133Z,4.20
2023-10-29T19:34:31.547Z,4.10
2023-10-29T19:37:00.460Z,4.60
2023-10-29T19:39:28.139Z,4.10
2023-10-29T19:41:55.701Z,4.53
2023-10-29T19:44:24.646Z,4.68
2023-10-29T19:46:52.164Z,3.92
2023-10-29T19:49:19.706Z,3.75
2023-10-29T19:51:47.088Z,4.18
2023-10-29T19:58:32.690Z,3.40
2023-10-29T20:01:09.048Z,3.85
2023-10-29T20:03:37.161Z,3.70
2023-10-29T20:06:12.355Z,3.22
2023-10-29T20:08:47.291Z,3.40
2023-10-29T20:11:15.700Z,3.50
2023-10-29T20:13:54.044Z,3.40
2023-10-29T20:16:22.205Z,3.80
2023-10-29T20:18:55.195Z,3.85
2023-10-29T20:21:23.268Z,3.78
2023-10-29T20:23:53.675Z,3.65
2023-10-29T20:26:21.523Z,4.18
2023-10-29T20:28:55.528Z,3.78
2023-10-29T20:31:26.219Z,4.15
2023-10-29T20:33:53.856Z,3.75
2023-10-29T20:36:21.462Z,4.25
2023-10-29T20:38:49.330Z,3.22
2023-10-29T20:41:17.055Z,4.30
2023-10-29T20:43:45.022Z,4.70
2023-10-29T20:46:25.264Z,4.45
2023-10-29T20:48:52.809Z,4.45
2023-10-29T20:51:20.157Z,3.88
2023-10-29T20:53:50.202Z,4.10
2023-10-29T20:56:18.691Z,4.10
2023-10-29T20:58:46.099Z,4.40
2023-10-29T21:01:13.519Z,3.92
2023-10-29T21:03:40.984Z,4.07
2023-10-29T21:06:08.583Z,4.53
2023-10-29T21:08:36.150Z,5.05
2023-10-29T21:11:14.733Z,4.05
2023-10-29T21:13:47.237Z,4.25
2023-10-29T21:16:16.694Z,5.18
2023-10-29T21:18:54.113Z,4.43
2023-10-29T21:21:21.553Z,4.50
2023-10-29T21:23:49.038Z,4.40
2023-10-29T21:26:16.591Z,4.40
2023-10-29T21:28:44.518Z,5.10
2023-10-29T21:31:13.177Z,4.40
2023-10-29T21:33:42.427Z,5.00
2023-10-29T21:36:13.301Z,5.30
2023-10-29T21:38:40.577Z,5.22
2023-10-29T21:41:13.495Z,4.78
2023-10-29T21:43:42.155Z,4.57
2023-10-29T21:46:12.754Z,5.45
2023-10-29T21:48:40.270Z,5.15
2023-10-29T21:51:08.030Z,5.00
2023-10-29T21:53:37.305Z,5.20
2023-10-29T21:56:06.980Z,5.13
2023-10-29T21:58:38.179Z,5.45
2023-10-29T22:01:05.649Z,5.20
2023-10-29T22:03:34.889Z,5.03
2023-10-29T22:06:07.897Z,5.00
2023-10-29T22:08:39.761Z,5.07
2023-10-29T22:11:08.862Z,4.95
2023-10-29T22:13:43.613Z,4.90
2023-10-29T22:16:12.581Z,4.68
2023-10-29T22:18:40.568Z,4.68
2023-10-29T22:21:13.690Z,5.60
2023-10-29T22:26:09.744Z,5.53
2023-10-29T22:28:38.257Z,4.90
2023-10-29T22:31:06.290Z,6.25
2023-10-29T22:33:35.051Z,5.30
2023-10-29T22:36:05.561Z,4.78
2023-10-29T22:38:33.600Z,5.15
2023-10-29T22:41:01.921Z,5.97
2023-10-29T22:43:30.333Z,4.70
2023-10-29T22:45:58.179Z,6.07
2023-10-29T22:48:25.716Z,4.70
2023-10-29T22:50:53.852Z,5.30
2023-10-29T22:53:22.389Z,5.28
2023-10-29T22:55:49.913Z,5.10
2023-10-29T22:58:17.346Z,4.93
2023-10-29T23:00:44.942Z,5.15
2023-10-29T23:03:12.284Z,5.00
2023-10-29T23:05:39.788Z,4.15
2023-10-29T23:08:07.200Z,4.90
2023-10-29T23:10:35.714Z,4.82
2023-10-29T23:13:05.433Z,5.03
2023-10-29T23:15:33.163Z,5.68
2023-10-29T23:18:02.307Z,5.55
2023-10-29T23:20:29.951Z,5.25
2023-10-29T23:22:57.328Z,4.88
2023-10-29T23:25:24.775Z,5.30
2023-10-29T23:27:52.082Z,5.40
2023-10-29T23:30:19.509Z,5.68
2023-10-29T23:32:46.836Z,5.30
2023-10-29T23:35:14.288Z,5.82
2023-10-29T23:37:41.853Z,5.85
2023-10-29T23:40:10.059Z,4.95
2023-10-29T23:42:37.497Z,5.07
2023-10-29T23:45:05.509Z,4.93
2023-10-29T23:47:33.654Z,5.43
2023-10-29T23:50:00.988Z,4.78
2023-10-29T23:52:30.654Z,5.05
2023-10-29T23:54:58.026Z,4.97
2023-10-29T23:57:27.886Z,5.18
2023-10-29T23:59:55.183Z,5.75
